Date,TemperatureHighF,TemperatureAvgF,TemperatureLowF,DewpointHighF,DewpointAvgF,DewpointLowF,HumidityHigh,HumidityAvg,HumidityLow,PressureMaxIn,PressureMinIn,WindSpeedMaxMPH,WindSpeedAvgMPH,GustSpeedMaxMPH,PrecipitationSumIn
2013-2-1,41,32,20,28,22,14,82,67,54,29.89,29.70,24,8,24,0.00
2013-2-2,49,32,20,20,17,12,80,57,27,29.96,29.88,38,9,38,0.00
2013-2-3,46,35,26,19,16,14,65,48,31,29.89,29.63,35,11,35,0.00
2013-2-4,50,36,24,19,15,12,62,44,27,29.68,29.56,34,9,34,0.00
2013-2-5,50,38,24,24,19,13,67,48,32,29.70,29.54,30,10,30,0.00
2013-2-6,46,37,25,22,19,15,78,49,33,29.79,29.52,22,5,22,0.00
2013-2-7,44,31,15,18,12,7,84,51,27,29.81,29.65,33,9,33,0.00
2013-2-8,50,36,27,24,15,7,77,44,27,29.67,29.49,18,5,18,0.00
2013-2-9,28,26,24,24,21,18,88,83,72,29.55,29.40,17,5,17,0.00
2013-2-10,28,19,2,21,13,-3,88,79,65,29.74,29.45,19,5,19,0.00
2013-2-11,24,12,0,11,4,-5,83,70,55,29.74,29.65,23,8,23,0.00
2013-2-12,26,21,14,15,10,4,68,62,57,29.75,29.69,36,18,36,0.00
2013-2-13,41,30,23,26,20,14,83,67,52,29.73,29.62,36,13,36,0.00
2013-2-14,28,23,20,24,17,12,86,76,62,29.94,29.72,26,5,26,0.00
2013-2-15,35,25,12,24,17,9,86,71,52,29.98,29.86,18,4,18,0.02
2013-2-16,43,34,26,23,19,15,64,54,42,29.87,29.59,39,17,39,0.00
2013-2-17,46,34,25,25,18,13,83,54,33,29.61,29.39,37,13,37,0.00
2013-2-18,34,24,10,21,14,4,83,67,38,29.73,29.60,19,4,19,0.00
2013-2-19,44,24,7,20,10,3,86,60,27,29.71,29.45,26,4,26,0.00
2013-2-20,42,26,15,20,16,11,83,67,41,29.49,29.39,18,6,18,0.00
2013-2-21,29,22,15,20,16,10,88,78,67,29.59,29.49,15,5,15,0.00
2013-2-22,36,23,12,20,10,6,86,61,31,29.63,29.48,32,10,32,0.00
2013-2-23,39,29,23,24,17,10,88,63,46,29.51,29.36,41,18,41,0.00
2013-2-24,31,22,11,21,17,7,87,79,61,29.78,29.51,27,7,27,0.00
2013-2-25,31,23,9,15,11,4,83,61,50,29.75,29.52,39,18,39,0.00
2013-2-26,32,25,15,23,19,11,86,78,54,29.86,29.54,30,6,30,0.02
2013-2-27,28,19,9,16,11,5,85,70,57,29.92,29.85,30,10,30,0.00
2013-2-28,34,24,16,18,12,7,73,59,43,29.94,29.85,32,10,32,0.00